sensor_id;sensor_type;location;lat;lon;timestamp;P1;durP1;ratioP1;P2;durP2;ratioP2
61527;SDS011;47395;42.032;-8.634;2023-07-29T00:00:26;3.58;;;2.28;;
61527;SDS011;47395;42.032;-8.634;2023-07-29T00:02:28;3.05;;;2.50;;
61527;SDS011;47395;42.032;-8.634;2023-07-29T00:04:31;6.65;;;2.75;;
61527;SDS011;47395;42.032;-8.634;2023-07-29T00:06:31;2.90;;;2.70;;
61527;SDS011;47395;42.032;-8.634;2023-07-29T00:08:32;4.25;;;2.80;;
61527;SDS011;47395;42.032;-8.634;2023-07-29T00:10:35;7.30;;;3.33;;
61527;SDS011;47395;42.032;-8.634;2023-07-29T00:12:37;5.35;;;2.53;;
61527;SDS011;47395;42.032;-8.634;2023-07-29T00:14:38;8.85;;;3.65;;
61527;SDS011;47395;42.032;-8.634;2023-07-29T00:16:38;4.15;;;3.20;;
61527;SDS011;47395;42.032;-8.634;2023-07-29T00:18:43;4.63;;;3.65;;
61527;SDS011;47395;42.032;-8.634;2023-07-29T00:20:44;4.45;;;3.22;;
61527;SDS011;47395;42.032;-8.634;2023-07-29T00:22:45;3.47;;;3.17;;
61527;SDS011;47395;42.032;-8.634;2023-07-29T00:24:50;3.58;;;3.38;;
61527;SDS011;47395;42.032;-8.634;2023-07-29T00:26:53;7.57;;;3.72;;
61527;SDS011;47395;42.032;-8.634;2023-07-29T00:28:55;6.07;;;3.42;;
61527;SDS011;47395;42.032;-8.634;2023-07-29T00:30:56;8.55;;;3.50;;
61527;SDS011;47395;42.032;-8.634;2023-07-29T00:32:57;6.18;;;3.65;;
61527;SDS011;47395;42.032;-8.634;2023-07-29T00:34:58;5.55;;;3.63;;
61527;SDS011;47395;42.032;-8.634;2023-07-29T00:37:01;7.38;;;3.10;;
61527;SDS011;47395;42.032;-8.634;2023-07-29T00:39:01;8.60;;;4.15;;
61527;SDS011;47395;42.032;-8.634;2023-07-29T00:41:03;6.07;;;3.40;;
61527;SDS011;47395;42.032;-8.634;2023-07-29T00:43:04;4.72;;;3.17;;
61527;SDS011;47395;42.032;-8.634;2023-07-29T00:45:06;4.18;;;3.33;;
61527;SDS011;47395;42.032;-8.634;2023-07-29T00:47:08;5.95;;;3.75;;
61527;SDS011;47395;42.032;-8.634;2023-07-29T00:49:09;5.80;;;3.30;;
61527;SDS011;47395;42.032;-8.634;2023-07-29T00:51:10;7.03;;;3.50;;
61527;SDS011;47395;42.032;-8.634;2023-07-29T00:53:10;3.70;;;2.85;;
61527;SDS011;47395;42.032;-8.634;2023-07-29T00:55:12;10.57;;;3.40;;
61527;SDS011;47395;42.032;-8.634;2023-07-29T00:57:13;4.00;;;3.00;;
61527;SDS011;47395;42.032;-8.634;2023-07-29T00:59:16;4.53;;;2.85;;
61527;SDS011;47395;42.032;-8.634;2023-07-29T01:01:17;4.95;;;3.17;;
61527;SDS011;47395;42.032;-8.634;2023-07-29T01:03:18;9.80;;;3.08;;
61527;SDS011;47395;42.032;-8.634;2023-07-29T01:05:19;12.40;;;3.75;;
61527;SDS011;47395;42.032;-8.634;2023-07-29T01:07:27;4.50;;;3.33;;
61527;SDS011;47395;42.032;-8.634;2023-07-29T01:13:19;5.05;;;3.67;;
61527;SDS011;47395;42.032;-8.634;2023-07-29T01:14:57;6.43;;;3.92;;
61527;SDS011;47395;42.032;-8.634;2023-07-29T01:17:07;9.68;;;4.00;;
61527;SDS011;47395;42.032;-8.634;2023-07-29T01:19:17;9.63;;;4.80;;
61527;SDS011;47395;42.032;-8.634;2023-07-29T01:21:31;9.18;;;4.80;;
61527;SDS011;47395;42.032;-8.634;2023-07-29T01:23:35;12.85;;;5.18;;
61527;SDS011;47395;42.032;-8.634;2023-07-29T01:25:36;7.32;;;4.65;;
61527;SDS011;47395;42.032;-8.634;2023-07-29T01:27:36;10.07;;;5.50;;
61527;SDS011;47395;42.032;-8.634;2023-07-29T01:29:37;11.68;;;5.20;;
61527;SDS011;47395;42.032;-8.634;2023-07-29T01:31:40;10.13;;;5.50;;
61527;SDS011;47395;42.032;-8.634;2023-07-29T01:34:29;8.75;;;5.05;;
61527;SDS011;47395;42.032;-8.634;2023-07-29T01:36:21;6.43;;;4.55;;
61527;SDS011;47395;42.032;-8.634;2023-07-29T01:38:32;12.20;;;5.03;;
61527;SDS011;47395;42.032;-8.634;2023-07-29T01:40:36;8.27;;;5.20;;
61527;SDS011;47395;42.032;-8.634;2023-07-29T01:42:38;6.03;;;5.05;;
61527;SDS011;47395;42.032;-8.634;2023-07-29T01:44:39;15.82;;;5.88;;
61527;SDS011;47395;42.032;-8.634;2023-07-29T01:46:43;10.20;;;6.13;;
61527;SDS011;47395;42.032;-8.634;2023-07-29T01:48:44;12.95;;;5.43;;
61527;SDS011;47395;42.032;-8.634;2023-07-29T01:50:47;10.73;;;5.65;;
61527;SDS011;47395;42.032;-8.634;2023-07-29T01:52:48;12.63;;;5.82;;
61527;SDS011;47395;42.032;-8.634;2023-07-29T01:54:49;15.23;;;6.10;;
61527;SDS011;47395;42.032;-8.634;2023-07-29T01:56:50;13.15;;;6.70;;
61527;SDS011;47395;42.032;-8.634;2023-07-29T01:58:51;12.32;;;6.88;;
61527;SDS011;47395;42.032;-8.634;2023-07-29T02:00:54;19.00;;;7.07;;
61527;SDS011;47395;42.032;-8.634;2023-07-29T02:02:55;19.48;;;7.47;;
61527;SDS011;47395;42.032;-8.634;2023-07-29T02:04:56;13.27;;;7.47;;
61527;SDS011;47395;42.032;-8.634;2023-07-29T02:06:57;15.50;;;8.10;;
61527;SDS011;47395;42.032;-8.634;2023-07-29T02:08:58;19.45;;;7.97;;
61527;SDS011;47395;42.032;-8.634;2023-07-29T02:10:59;17.05;;;7.75;;
61527;SDS011;47395;42.032;-8.634;2023-07-29T02:13:00;15.95;;;7.43;;
61527;SDS011;47395;42.032;-8.634;2023-07-29T02:15:00;11.85;;;7.05;;
61527;SDS011;47395;42.032;-8.634;2023-07-29T02:17:01;22.05;;;7.80;;
61527;SDS011;47395;42.032;-8.634;2023-07-29T02:19:02;18.08;;;9.15;;
61527;SDS011;47395;42.032;-8.634;2023-07-29T02:21:03;19.10;;;8.02;;
61527;SDS011;47395;42.032;-8.634;2023-07-29T02:23:04;12.80;;;8.05;;
61527;SDS011;47395;42.032;-8.634;2023-07-29T02:25:05;13.15;;;7.88;;
61527;SDS011;47395;42.032;-8.634;2023-07-29T02:27:06;20.58;;;8.27;;
61527;SDS011;47395;42.032;-8.634;2023-07-29T02:29:07;19.25;;;8.65;;
61527;SDS011;47395;42.032;-8.634;2023-07-29T02:31:09;22.30;;;8.00;;
61527;SDS011;47395;42.032;-8.634;2023-07-29T02:33:16;20.58;;;9.02;;
61527;SDS011;47395;42.032;-8.634;2023-07-29T02:35:16;18.65;;;9.20;;
61527;SDS011;47395;42.032;-8.634;2023-07-29T02:37:18;23.77;;;8.95;;
61527;SDS011;47395;42.032;-8.634;2023-07-29T02:39:19;20.85;;;9.23;;
61527;SDS011;47395;42.032;-8.634;2023-07-29T02:41:20;16.65;;;8.60;;
61527;SDS011;47395;42.032;-8.634;2023-07-29T02:43:20;19.30;;;8.38;;
61527;SDS011;47395;42.032;-8.634;2023-07-29T02:45:21;19.73;;;7.95;;
61527;SDS011;47395;42.032;-8.634;2023-07-29T02:47:22;19.63;;;8.02;;
61527;SDS011;47395;42.032;-8.634;2023-07-29T02:49:24;24.50;;;8.80;;
61527;SDS011;47395;42.032;-8.634;2023-07-29T02:51:25;27.83;;;8.27;;
61527;SDS011;47395;42.032;-8.634;2023-07-29T02:53:26;18.20;;;7.90;;
61527;SDS011;47395;42.032;-8.634;2023-07-29T02:55:27;26.23;;;8.75;;
61527;SDS011;47395;42.032;-8.634;2023-07-29T02:57:28;29.88;;;8.98;;
61527;SDS011;47395;42.032;-8.634;2023-07-29T02:59:28;17.02;;;8.35;;
61527;SDS011;47395;42.032;-8.634;2023-07-29T03:01:30;27.85;;;8.43;;
61527;SDS011;47395;42.032;-8.634;2023-07-29T03:03:31;21.15;;;8.27;;
61527;SDS011;47395;42.032;-8.634;2023-07-29T03:05:33;25.48;;;8.38;;
61527;SDS011;47395;42.032;-8.634;2023-07-29T03:07:34;14.75;;;7.65;;
61527;SDS011;47395;42.032;-8.634;2023-07-29T03:09:36;24.15;;;8.27;;
61527;SDS011;47395;42.032;-8.634;2023-07-29T03:11:37;19.60;;;8.07;;
61527;SDS011;47395;42.032;-8.634;2023-07-29T03:13:37;12.90;;;7.57;;
61527;SDS011;47395;42.032;-8.634;2023-07-29T03:15:39;23.70;;;7.72;;
61527;SDS011;47395;42.032;-8.634;2023-07-29T03:17:39;19.50;;;7.82;;
61527;SDS011;47395;42.032;-8.634;2023-07-29T03:19:40;14.00;;;7.93;;
61527;SDS011;47395;42.032;-8.634;2023-07-29T03:21:41;16.35;;;8.10;;
61527;SDS011;47395;42.032;-8.634;2023-07-29T03:23:42;16.70;;;7.47;;
61527;SDS011;47395;42.032;-8.634;2023-07-29T03:25:43;21.23;;;8.45;;
61527;SDS011;47395;42.032;-8.634;2023-07-29T03:27:45;12.93;;;7.82;;
61527;SDS011;47395;42.032;-8.634;2023-07-29T03:29:49;15.68;;;6.72;;
61527;SDS011;47395;42.032;-8.634;2023-07-29T03:31:50;15.10;;;7.60;;
61527;SDS011;47395;42.032;-8.634;2023-07-29T03:33:51;19.45;;;7.47;;
61527;SDS011;47395;42.032;-8.634;2023-07-29T03:35:52;14.70;;;7.18;;
61527;SDS011;47395;42.032;-8.634;2023-07-29T03:37:53;11.88;;;6.55;;
61527;SDS011;47395;42.032;-8.634;2023-07-29T03:39:54;15.95;;;6.93;;
61527;SDS011;47395;42.032;-8.634;2023-07-29T03:41:54;18.00;;;7.40;;
61527;SDS011;47395;42.032;-8.634;2023-07-29T03:43:55;21.55;;;6.82;;
61527;SDS011;47395;42.032;-8.634;2023-07-29T03:45:56;11.50;;;6.43;;
61527;SDS011;47395;42.032;-8.634;2023-07-29T03:47:57;16.50;;;6.45;;
61527;SDS011;47395;42.032;-8.634;2023-07-29T03:49:58;10.10;;;6.32;;
61527;SDS011;47395;42.032;-8.634;2023-07-29T03:51:58;18.65;;;7.13;;
61527;SDS011;47395;42.032;-8.634;2023-07-29T03:53:59;11.40;;;7.10;;
61527;SDS011;47395;42.032;-8.634;2023-07-29T03:56:00;10.43;;;6.60;;
61527;SDS011;47395;42.032;-8.634;2023-07-29T03:58:01;18.02;;;7.32;;
61527;SDS011;47395;42.032;-8.634;2023-07-29T04:00:02;15.55;;;6.75;;
61527;SDS011;47395;42.032;-8.634;2023-07-29T04:06:47;10.23;;;5.95;;
61527;SDS011;47395;42.032;-8.634;2023-07-29T04:08:49;15.40;;;6.57;;
61527;SDS011;47395;42.032;-8.634;2023-07-29T04:10:50;21.38;;;6.88;;
61527;SDS011;47395;42.032;-8.634;2023-07-29T04:12:52;16.67;;;7.22;;
61527;SDS011;47395;42.032;-8.634;2023-07-29T04:14:53;21.10;;;7.18;;
61527;SDS011;47395;42.032;-8.634;2023-07-29T04:16:54;14.77;;;6.50;;
61527;SDS011;47395;42.032;-8.634;2023-07-29T04:18:56;9.63;;;6.45;;
61527;SDS011;47395;42.032;-8.634;2023-07-29T04:20:57;17.77;;;7.05;;
61527;SDS011;47395;42.032;-8.634;2023-07-29T04:22:58;11.95;;;6.65;;
61527;SDS011;47395;42.032;-8.634;2023-07-29T04:24:59;10.35;;;5.88;;
61527;SDS011;47395;42.032;-8.634;2023-07-29T04:27:00;17.85;;;6.63;;
61527;SDS011;47395;42.032;-8.634;2023-07-29T04:29:02;10.68;;;6.80;;
61527;SDS011;47395;42.032;-8.634;2023-07-29T04:31:03;9.98;;;6.68;;
61527;SDS011;47395;42.032;-8.634;2023-07-29T04:33:05;10.90;;;7.03;;
61527;SDS011;47395;42.032;-8.634;2023-07-29T04:35:06;16.25;;;7.93;;
61527;SDS011;47395;42.032;-8.634;2023-07-29T04:37:10;15.00;;;7.50;;
61527;SDS011;47395;42.032;-8.634;2023-07-29T04:39:11;12.05;;;7.55;;
61527;SDS011;47395;42.032;-8.634;2023-07-29T04:41:12;21.95;;;7.70;;
61527;SDS011;47395;42.032;-8.634;2023-07-29T04:43:13;16.25;;;8.18;;
61527;SDS011;47395;42.032;-8.634;2023-07-29T04:45:14;15.07;;;7.05;;
61527;SDS011;47395;42.032;-8.634;2023-07-29T04:47:16;11.85;;;7.35;;
61527;SDS011;47395;42.032;-8.634;2023-07-29T04:49:17;17.90;;;7.57;;
61527;SDS011;47395;42.032;-8.634;2023-07-29T04:51:18;15.45;;;7.63;;
61527;SDS011;47395;42.032;-8.634;2023-07-29T04:53:19;13.68;;;7.38;;
61527;SDS011;47395;42.032;-8.634;2023-07-29T04:55:20;14.77;;;7.25;;
61527;SDS011;47395;42.032;-8.634;2023-07-29T04:57:21;11.23;;;6.57;;
61527;SDS011;47395;42.032;-8.634;2023-07-29T04:59:22;13.52;;;6.35;;
61527;SDS011;47395;42.032;-8.634;2023-07-29T05:01:23;14.50;;;6.50;;
61527;SDS011;47395;42.032;-8.634;2023-07-29T05:03:26;26.15;;;7.90;;
61527;SDS011;47395;42.032;-8.634;2023-07-29T05:05:27;11.73;;;7.22;;
61527;SDS011;47395;42.032;-8.634;2023-07-29T05:07:28;22.08;;;7.78;;
61527;SDS011;47395;42.032;-8.634;2023-07-29T05:09:29;21.50;;;8.10;;
61527;SDS011;47395;42.032;-8.634;2023-07-29T05:11:30;18.10;;;7.75;;
61527;SDS011;47395;42.032;-8.634;2023-07-29T05:13:31;19.33;;;7.70;;
61527;SDS011;47395;42.032;-8.634;2023-07-29T05:15:32;13.68;;;7.43;;
61527;SDS011;47395;42.032;-8.634;2023-07-29T05:17:32;19.10;;;7.28;;
61527;SDS011;47395;42.032;-8.634;2023-07-29T05:19:33;10.85;;;5.65;;
61527;SDS011;47395;42.032;-8.634;2023-07-29T05:21:35;9.10;;;5.72;;
61527;SDS011;47395;42.032;-8.634;2023-07-29T05:23:38;9.98;;;5.35;;
61527;SDS011;47395;42.032;-8.634;2023-07-29T05:25:39;17.63;;;5.90;;
61527;SDS011;47395;42.032;-8.634;2023-07-29T05:27:41;13.73;;;6.07;;
61527;SDS011;47395;42.032;-8.634;2023-07-29T05:29:42;12.73;;;5.68;;
61527;SDS011;47395;42.032;-8.634;2023-07-29T05:31:43;22.83;;;6.57;;
61527;SDS011;47395;42.032;-8.634;2023-07-29T05:33:45;12.95;;;6.35;;
61527;SDS011;47395;42.032;-8.634;2023-07-29T05:35:47;10.40;;;6.35;;
61527;SDS011;47395;42.032;-8.634;2023-07-29T05:37:48;13.65;;;7.03;;
61527;SDS011;47395;42.032;-8.634;2023-07-29T05:39:49;10.20;;;6.90;;
61527;SDS011;47395;42.032;-8.634;2023-07-29T05:41:50;15.95;;;6.75;;
61527;SDS011;47395;42.032;-8.634;2023-07-29T05:43:51;14.07;;;7.32;;
61527;SDS011;47395;42.032;-8.634;2023-07-29T05:45:52;11.15;;;6.97;;
61527;SDS011;47395;42.032;-8.634;2023-07-29T05:47:53;18.92;;;6.80;;
61527;SDS011;47395;42.032;-8.634;2023-07-29T05:49:54;10.60;;;7.28;;
61527;SDS011;47395;42.032;-8.634;2023-07-29T05:51:56;13.85;;;8.10;;
61527;SDS011;47395;42.032;-8.634;2023-07-29T05:53:57;14.50;;;7.63;;
61527;SDS011;47395;42.032;-8.634;2023-07-29T05:55:57;16.95;;;7.90;;
61527;SDS011;47395;42.032;-8.634;2023-07-29T05:57:58;10.90;;;7.35;;
61527;SDS011;47395;42.032;-8.634;2023-07-29T06:00:01;11.05;;;7.13;;
61527;SDS011;47395;42.032;-8.634;2023-07-29T06:02:02;12.30;;;6.93;;
61527;SDS011;47395;42.032;-8.634;2023-07-29T06:04:03;12.60;;;7.53;;
61527;SDS011;47395;42.032;-8.634;2023-07-29T06:06:04;14.25;;;7.43;;
61527;SDS011;47395;42.032;-8.634;2023-07-29T06:08:05;8.30;;;6.90;;
61527;SDS011;47395;42.032;-8.634;2023-07-29T06:10:10;11.07;;;6.63;;
61527;SDS011;47395;42.032;-8.634;2023-07-29T06:12:19;13.70;;;7.45;;
61527;SDS011;47395;42.032;-8.634;2023-07-29T06:14:20;8.70;;;6.53;;
61527;SDS011;47395;42.032;-8.634;2023-07-29T06:16:22;7.53;;;5.35;;
61527;SDS011;47395;42.032;-8.634;2023-07-29T06:18:22;13.82;;;5.78;;
61527;SDS011;47395;42.032;-8.634;2023-07-29T06:20:25;11.20;;;6.28;;
61527;SDS011;47395;42.032;-8.634;2023-07-29T06:22:25;8.68;;;6.13;;
61527;SDS011;47395;42.032;-8.634;2023-07-29T06:24:26;9.88;;;5.85;;
61527;SDS011;47395;42.032;-8.634;2023-07-29T06:26:27;17.65;;;7.32;;
61527;SDS011;47395;42.032;-8.634;2023-07-29T06:28:28;14.85;;;8.05;;
61527;SDS011;47395;42.032;-8.634;2023-07-29T06:30:29;13.10;;;7.28;;
61527;SDS011;47395;42.032;-8.634;2023-07-29T06:32:31;15.30;;;7.70;;
61527;SDS011;47395;42.032;-8.634;2023-07-29T06:34:32;15.48;;;7.40;;
61527;SDS011;47395;42.032;-8.634;2023-07-29T06:36:34;12.70;;;7.32;;
61527;SDS011;47395;42.032;-8.634;2023-07-29T06:38:34;10.68;;;6.25;;
61527;SDS011;47395;42.032;-8.634;2023-07-29T06:40:35;10.15;;;7.20;;
61527;SDS011;47395;42.032;-8.634;2023-07-29T06:42:36;16.70;;;7.78;;
61527;SDS011;47395;42.032;-8.634;2023-07-29T06:44:37;11.32;;;6.78;;
61527;SDS011;47395;42.032;-8.634;2023-07-29T06:46:38;11.20;;;7.00;;
61527;SDS011;47395;42.032;-8.634;2023-07-29T06:48:39;8.32;;;6.25;;
61527;SDS011;47395;42.032;-8.634;2023-07-29T06:50:40;12.68;;;6.55;;
61527;SDS011;47395;42.032;-8.634;2023-07-29T06:52:41;8.27;;;5.43;;
61527;SDS011;47395;42.032;-8.634;2023-07-29T06:54:42;5.80;;;5.10;;
61527;SDS011;47395;42.032;-8.634;2023-07-29T06:56:43;10.10;;;6.05;;
61527;SDS011;47395;42.032;-8.634;2023-07-29T06:58:44;7.88;;;6.18;;
61527;SDS011;47395;42.032;-8.634;2023-07-29T07:00:46;7.57;;;5.90;;
61527;SDS011;47395;42.032;-8.634;2023-07-29T07:02:47;11.30;;;6.13;;
61527;SDS011;47395;42.032;-8.634;2023-07-29T07:04:52;7.78;;;5.75;;
61527;SDS011;47395;42.032;-8.634;2023-07-29T07:06:54;9.55;;;6.00;;
61527;SDS011;47395;42.032;-8.634;2023-07-29T07:08:55;10.50;;;5.75;;
61527;SDS011;47395;42.032;-8.634;2023-07-29T07:10:57;9.55;;;5.65;;
61527;SDS011;47395;42.032;-8.634;2023-07-29T07:12:58;9.07;;;5.80;;
61527;SDS011;47395;42.032;-8.634;2023-07-29T07:14:59;9.93;;;6.10;;
61527;SDS011;47395;42.032;-8.634;2023-07-29T07:17:00;7.57;;;5.20;;
61527;SDS011;47395;42.032;-8.634;2023-07-29T07:19:01;9.90;;;6.15;;
61527;SDS011;47395;42.032;-8.634;2023-07-29T07:21:03;11.43;;;5.32;;
61527;SDS011;47395;42.032;-8.634;2023-07-29T07:23:04;8.65;;;5.40;;
61527;SDS011;47395;42.032;-8.634;2023-07-29T07:25:11;9.27;;;4.70;;
61527;SDS011;47395;42.032;-8.634;2023-07-29T07:27:12;21.52;;;5.55;;
61527;SDS011;47395;42.032;-8.634;2023-07-29T07:29:14;5.35;;;4.47;;
61527;SDS011;47395;42.032;-8.634;2023-07-29T07:31:15;5.10;;;4.53;;
61527;SDS011;47395;42.032;-8.634;2023-07-29T07:33:16;8.25;;;4.90;;
61527;SDS011;47395;42.032;-8.634;2023-07-29T07:35:17;4.80;;;3.83;;
61527;SDS011;47395;42.032;-8.634;2023-07-29T07:37:20;5.78;;;3.90;;
61527;SDS011;47395;42.032;-8.634;2023-07-29T07:39:21;6.35;;;4.05;;
61527;SDS011;47395;42.032;-8.634;2023-07-29T07:41:22;6.45;;;4.03;;
61527;SDS011;47395;42.032;-8.634;2023-07-29T07:43:27;6.25;;;3.78;;
61527;SDS011;47395;42.032;-8.634;2023-07-29T07:45:29;3.47;;;3.10;;
61527;SDS011;47395;42.032;-8.634;2023-07-29T07:47:30;4.20;;;3.33;;
61527;SDS011;47395;42.032;-8.634;2023-07-29T07:49:31;3.45;;;3.15;;
61527;SDS011;47395;42.032;-8.634;2023-07-29T07:51:35;4.35;;;3.20;;
61527;SDS011;47395;42.032;-8.634;2023-07-29T07:53:36;6.97;;;4.05;;
61527;SDS011;47395;42.032;-8.634;2023-07-29T07:55:36;3.67;;;3.38;;
61527;SDS011;47395;42.032;-8.634;2023-07-29T07:57:37;5.18;;;3.20;;
61527;SDS011;47395;42.032;-8.634;2023-07-29T07:59:38;5.13;;;3.33;;
61527;SDS011;47395;42.032;-8.634;2023-07-29T08:01:40;3.38;;;2.67;;
61527;SDS011;47395;42.032;-8.634;2023-07-29T08:03:41;7.38;;;3.30;;
61527;SDS011;47395;42.032;-8.634;2023-07-29T08:05:42;11.65;;;3.30;;
61527;SDS011;47395;42.032;-8.634;2023-07-29T08:07:42;6.68;;;3.30;;
61527;SDS011;47395;42.032;-8.634;2023-07-29T08:09:43;3.28;;;2.97;;
61527;SDS011;47395;42.032;-8.634;2023-07-29T08:11:46;6.93;;;3.30;;
61527;SDS011;47395;42.032;-8.634;2023-07-29T08:13:48;10.93;;;3.95;;
61527;SDS011;47395;42.032;-8.634;2023-07-29T08:15:50;3.70;;;2.20;;
61527;SDS011;47395;42.032;-8.634;2023-07-29T08:17:51;3.80;;;2.42;;
61527;SDS011;47395;42.032;-8.634;2023-07-29T08:19:52;3.60;;;2.72;;
61527;SDS011;47395;42.032;-8.634;2023-07-29T08:21:53;5.70;;;2.70;;
61527;SDS011;47395;42.032;-8.634;2023-07-29T08:23:54;2.83;;;2.05;;
61527;SDS011;47395;42.032;-8.634;2023-07-29T08:25:56;3.58;;;1.88;;
61527;SDS011;47395;42.032;-8.634;2023-07-29T08:28:01;1.70;;;1.52;;
61527;SDS011;47395;42.032;-8.634;2023-07-29T08:30:04;1.00;;;1.00;;
61527;SDS011;47395;42.032;-8.634;2023-07-29T08:32:05;0.98;;;0.98;;
61527;SDS011;47395;42.032;-8.634;2023-07-29T08:34:06;2.63;;;0.93;;
61527;SDS011;47395;42.032;-8.634;2023-07-29T08:36:07;0.68;;;0.68;;
61527;SDS011;47395;42.032;-8.634;2023-07-29T08:38:08;1.05;;;0.65;;
61527;SDS011;47395;42.032;-8.634;2023-07-29T08:40:09;2.08;;;0.70;;
61527;SDS011;47395;42.032;-8.634;2023-07-29T08:42:11;3.13;;;0.60;;
61527;SDS011;47395;42.032;-8.634;2023-07-29T08:44:14;2.03;;;0.73;;
61527;SDS011;47395;42.032;-8.634;2023-07-29T08:46:21;0.60;;;0.60;;
61527;SDS011;47395;42.032;-8.634;2023-07-29T08:48:23;0.85;;;0.85;;
61527;SDS011;47395;42.032;-8.634;2023-07-29T08:50:35;0.70;;;0.70;;
61527;SDS011;47395;42.032;-8.634;2023-07-29T08:52:36;0.90;;;0.90;;
61527;SDS011;47395;42.032;-8.634;2023-07-29T08:54:42;0.80;;;0.77;;
61527;SDS011;47395;42.032;-8.634;2023-07-29T08:56:43;1.55;;;1.00;;
61527;SDS011;47395;42.032;-8.634;2023-07-29T08:58:48;0.88;;;0.88;;
61527;SDS011;47395;42.032;-8.634;2023-07-29T09:00:49;0.55;;;0.55;;
61527;SDS011;47395;42.032;-8.634;2023-07-29T09:02:52;2.58;;;0.63;;
61527;SDS011;47395;42.032;-8.634;2023-07-29T09:04:54;0.90;;;0.90;;
61527;SDS011;47395;42.032;-8.634;2023-07-29T09:06:55;1.50;;;1.40;;
61527;SDS011;47395;42.032;-8.634;2023-07-29T09:09:00;1.00;;;1.00;;
61527;SDS011;47395;42.032;-8.634;2023-07-29T09:11:03;0.90;;;0.88;;
61527;SDS011;47395;42.032;-8.634;2023-07-29T09:13:04;0.88;;;0.88;;
61527;SDS011;47395;42.032;-8.634;2023-07-29T09:15:06;1.13;;;0.98;;
61527;SDS011;47395;42.032;-8.634;2023-07-29T09:17:08;1.20;;;1.00;;
61527;SDS011;47395;42.032;-8.634;2023-07-29T09:19:10;1.58;;;1.48;;
61527;SDS011;47395;42.032;-8.634;2023-07-29T09:21:11;3.63;;;2.10;;
61527;SDS011;47395;42.032;-8.634;2023-07-29T09:23:12;2.20;;;2.10;;
61527;SDS011;47395;42.032;-8.634;2023-07-29T09:25:12;2.30;;;2.20;;
61527;SDS011;47395;42.032;-8.634;2023-07-29T09:27:23;3.60;;;2.13;;
61527;SDS011;47395;42.032;-8.634;2023-07-29T09:29:27;2.55;;;2.15;;
61527;SDS011;47395;42.032;-8.634;2023-07-29T09:31:29;6.57;;;2.20;;
61527;SDS011;47395;42.032;-8.634;2023-07-29T09:33:32;2.40;;;1.92;;
61527;SDS011;47395;42.032;-8.634;2023-07-29T09:35:37;1.42;;;1.33;;
61527;SDS011;47395;42.032;-8.634;2023-07-29T09:37:38;1.27;;;1.20;;
61527;SDS011;47395;42.032;-8.634;2023-07-29T09:39:40;1.88;;;1.55;;
61527;SDS011;47395;42.032;-8.634;2023-07-29T09:41:47;1.00;;;1.00;;
61527;SDS011;47395;42.032;-8.634;2023-07-29T09:43:51;1.05;;;0.95;;
61527;SDS011;47395;42.032;-8.634;2023-07-29T09:46:02;1.08;;;1.05;;
61527;SDS011;47395;42.032;-8.634;2023-07-29T09:48:04;1.25;;;0.90;;
61527;SDS011;47395;42.032;-8.634;2023-07-29T09:50:09;2.00;;;1.13;;
61527;SDS011;47395;42.032;-8.634;2023-07-29T09:52:10;5.97;;;1.20;;
61527;SDS011;47395;42.032;-8.634;2023-07-29T09:54:11;0.90;;;0.90;;
61527;SDS011;47395;42.032;-8.634;2023-07-29T09:56:15;2.53;;;0.77;;
61527;SDS011;47395;42.032;-8.634;2023-07-29T09:58:19;0.65;;;0.65;;
61527;SDS011;47395;42.032;-8.634;2023-07-29T10:00:27;1.42;;;0.80;;
61527;SDS011;47395;42.032;-8.634;2023-07-29T10:02:29;0.95;;;0.95;;
61527;SDS011;47395;42.032;-8.634;2023-07-29T10:04:30;1.20;;;1.00;;
61527;SDS011;47395;42.032;-8.634;2023-07-29T10:06:34;0.98;;;0.98;;
61527;SDS011;47395;42.032;-8.634;2023-07-29T10:08:35;0.90;;;0.90;;
61527;SDS011;47395;42.032;-8.634;2023-07-29T10:10:36;0.70;;;0.70;;
61527;SDS011;47395;42.032;-8.634;2023-07-29T10:12:39;0.70;;;0.70;;
61527;SDS011;47395;42.032;-8.634;2023-07-29T10:14:42;3.80;;;0.80;;
61527;SDS011;47395;42.032;-8.634;2023-07-29T10:16:46;0.80;;;0.80;;
61527;SDS011;47395;42.032;-8.634;2023-07-29T10:18:46;1.10;;;0.98;;
61527;SDS011;47395;42.032;-8.634;2023-07-29T10:20:50;0.85;;;0.82;;
61527;SDS011;47395;42.032;-8.634;2023-07-29T10:22:52;3.50;;;0.80;;
61527;SDS011;47395;42.032;-8.634;2023-07-29T10:24:59;0.68;;;0.68;;
61527;SDS011;47395;42.032;-8.634;2023-07-29T10:27:05;0.60;;;0.60;;
61527;SDS011;47395;42.032;-8.634;2023-07-29T10:29:09;0.85;;;0.75;;
61527;SDS011;47395;42.032;-8.634;2023-07-29T10:31:15;0.65;;;0.60;;
61527;SDS011;47395;42.032;-8.634;2023-07-29T10:33:17;0.52;;;0.52;;
61527;SDS011;47395;42.032;-8.634;2023-07-29T10:35:18;0.50;;;0.50;;
61527;SDS011;47395;42.032;-8.634;2023-07-29T10:37:19;1.00;;;1.00;;
61527;SDS011;47395;42.032;-8.634;2023-07-29T10:39:21;0.57;;;0.57;;
61527;SDS011;47395;42.032;-8.634;2023-07-29T10:41:24;0.50;;;0.50;;
61527;SDS011;47395;42.032;-8.634;2023-07-29T10:43:58;0.60;;;0.60;;
61527;SDS011;47395;42.032;-8.634;2023-07-29T10:46:21;0.60;;;0.60;;
61527;SDS011;47395;42.032;-8.634;2023-07-29T10:53:24;0.68;;;0.68;;
61527;SDS011;47395;42.032;-8.634;2023-07-29T10:55:34;1.48;;;0.60;;
61527;SDS011;47395;42.032;-8.634;2023-07-29T10:57:39;0.60;;;0.60;;
61527;SDS011;47395;42.032;-8.634;2023-07-29T11:00:01;0.77;;;0.65;;
61527;SDS011;47395;42.032;-8.634;2023-07-29T11:02:06;0.50;;;0.50;;
61527;SDS011;47395;42.032;-8.634;2023-07-29T11:09:39;1.13;;;0.70;;
61527;SDS011;47395;42.032;-8.634;2023-07-29T11:11:43;0.60;;;0.60;;
61527;SDS011;47395;42.032;-8.634;2023-07-29T11:13:44;0.57;;;0.57;;
61527;SDS011;47395;42.032;-8.634;2023-07-29T11:15:45;0.50;;;0.50;;
61527;SDS011;47395;42.032;-8.634;2023-07-29T11:17:48;0.50;;;0.50;;
61527;SDS011;47395;42.032;-8.634;2023-07-29T11:19:54;3.42;;;0.40;;
61527;SDS011;47395;42.032;-8.634;2023-07-29T11:21:58;0.45;;;0.45;;
61527;SDS011;47395;42.032;-8.634;2023-07-29T11:24:00;0.35;;;0.35;;
61527;SDS011;47395;42.032;-8.634;2023-07-29T11:26:02;0.40;;;0.40;;
61527;SDS011;47395;42.032;-8.634;2023-07-29T11:28:04;1.02;;;0.80;;
61527;SDS011;47395;42.032;-8.634;2023-07-29T11:30:06;1.95;;;0.88;;
61527;SDS011;47395;42.032;-8.634;2023-07-29T11:32:09;0.77;;;0.70;;
61527;SDS011;47395;42.032;-8.634;2023-07-29T11:34:11;0.98;;;0.88;;
61527;SDS011;47395;42.032;-8.634;2023-07-29T11:36:19;2.55;;;1.00;;
61527;SDS011;47395;42.032;-8.634;2023-07-29T11:38:20;0.98;;;0.88;;
61527;SDS011;47395;42.032;-8.634;2023-07-29T11:40:22;0.70;;;0.70;;
61527;SDS011;47395;42.032;-8.634;2023-07-29T11:42:23;2.80;;;1.00;;
61527;SDS011;47395;42.032;-8.634;2023-07-29T11:44:24;2.92;;;1.00;;
61527;SDS011;47395;42.032;-8.634;2023-07-29T11:46:25;0.80;;;0.80;;
61527;SDS011;47395;42.032;-8.634;2023-07-29T11:48:27;0.98;;;0.90;;
61527;SDS011;47395;42.032;-8.634;2023-07-29T11:50:31;3.85;;;0.70;;
61527;SDS011;47395;42.032;-8.634;2023-07-29T11:52:33;0.90;;;0.90;;
61527;SDS011;47395;42.032;-8.634;2023-07-29T11:54:35;0.80;;;0.73;;
61527;SDS011;47395;42.032;-8.634;2023-07-29T11:56:39;0.80;;;0.73;;
61527;SDS011;47395;42.032;-8.634;2023-07-29T11:58:41;2.50;;;1.35;;
61527;SDS011;47395;42.032;-8.634;2023-07-29T12:00:45;4.03;;;0.80;;
61527;SDS011;47395;42.032;-8.634;2023-07-29T12:02:48;0.98;;;0.77;;
61527;SDS011;47395;42.032;-8.634;2023-07-29T12:04:49;0.93;;;0.80;;
61527;SDS011;47395;42.032;-8.634;2023-07-29T12:06:51;1.70;;;0.70;;
61527;SDS011;47395;42.032;-8.634;2023-07-29T12:08:52;0.60;;;0.60;;
61527;SDS011;47395;42.032;-8.634;2023-07-29T12:10:54;0.40;;;0.40;;
61527;SDS011;47395;42.032;-8.634;2023-07-29T12:12:55;0.40;;;0.40;;
61527;SDS011;47395;42.032;-8.634;2023-07-29T12:14:56;0.60;;;0.60;;
61527;SDS011;47395;42.032;-8.634;2023-07-29T12:16:59;0.57;;;0.57;;
61527;SDS011;47395;42.032;-8.634;2023-07-29T12:19:04;0.60;;;0.60;;